Main page
METAR-TAF:

METAR-TAF

Airports :

Oulu Airport

Oulu, Finland

latitude: 64-56N, longitude: 025-22E, elevation: 12 m

Current weather observation

The report was made 23 minutes ago, at 17:50 UTC
Wind 4 kt from the West, varying between Southwest and West/Northwest
Temperature 16°C
Humidity 55%
Pressure 1013 hPa
Visibility 10 km or more
Few clouds at a height of 4100 ft

METAR: EFOU 151750Z AUTO 26004KT 220V300 9999 FEW041 //////CB 16/07 Q1013

Time: 21:13 (18:13 UTC)

Forecast

The report was made 45 minutes ago, at 17:28 UTC
Forecast valid from 15 at 18 UTC to 16 at 18 UTC
Wind 6 kt from the Southwest
Visibility 10 km or more
Scattered clouds at a height of 4000 ft
Temporary
from 15 at 18 UTC to 15 at 20 UTC
Few clouds at a height of 4000 ft, Cumulonimbus.

TAF: EFOU 151728Z 1518/1618 22006KT 9999 SCT040 TEMPO 1518/1520 FEW040CB

Weather observations and forecasts of more than 4000 airports (METAR and TAF reports).

The available stations are represented by yellow and red dots on the map.

Hover mouse over dot to see the name of the station.

Then click to see weather observations and forecasts.

To change the map : click on the green buttons with a black cross to zoom in, on the green button with a dash to zoom out, or on the green arrows for adjacent maps.


METAR-TAF: